Time;durP1;ratioP1;P1;durP2;ratioP2;P2;SDS_P1;SDS_P2;PMS_P1;PMS_P2;Temp;Humidity;BMP_temperature;BMP_pressure;BME280_temperature;BME280_humidity;BME280_pressure;Samples;Min_cycle;Max_cycle;Signal;HPM_P1;HPM_P2
2022/07/05 00:01:03;;;;;;;4.22;2.20;;;15.00;99.90;;;;;;5017385;28;20097;-75
2022/07/05 00:03:29;;;;;;;3.83;2.15;;;15.00;99.90;;;;;;4978411;28;20408;-74
2022/07/05 00:05:56;;;;;;;5.22;2.67;;;15.00;99.90;;;;;;4976412;28;20089;-74
2022/07/05 00:08:21;;;;;;;5.00;2.28;;;15.00;99.90;;;;;;4990165;28;20038;-74
2022/07/05 00:10:47;;;;;;;5.32;2.40;;;15.00;99.90;;;;;;4990719;28;20050;-74
2022/07/05 00:13:13;;;;;;;4.32;2.00;;;14.90;99.90;;;;;;4980719;28;20045;-74
2022/07/05 00:15:39;;;;;;;5.00;2.28;;;14.90;99.90;;;;;;4990620;28;20042;-74
2022/07/05 00:18:04;;;;;;;5.22;2.58;;;14.90;99.90;;;;;;4977893;28;20049;-74
2022/07/05 00:20:30;;;;;;;4.85;2.22;;;14.90;99.90;;;;;;4984829;28;20565;-74
2022/07/05 00:22:56;;;;;;;6.25;2.22;;;14.90;99.90;;;;;;4989019;28;20030;-74
2022/07/05 00:25:21;;;;;;;3.95;2.25;;;14.90;99.90;;;;;;4974032;28;20038;-75
2022/07/05 00:27:47;;;;;;;5.55;2.72;;;14.90;99.90;;;;;;4989943;28;20038;-74
2022/07/05 00:30:13;;;;;;;3.95;2.10;;;14.90;99.90;;;;;;4991376;28;20054;-74
2022/07/05 00:32:39;;;;;;;4.57;2.10;;;14.90;99.90;;;;;;4990411;28;20129;-73
2022/07/05 00:35:05;;;;;;;4.80;2.60;;;14.80;99.90;;;;;;4989755;28;20034;-73
2022/07/05 00:37:31;;;;;;;4.53;2.33;;;14.80;99.90;;;;;;4990066;28;20566;-75
2022/07/05 00:39:57;;;;;;;3.78;2.20;;;14.70;99.90;;;;;;4991976;28;20026;-73
2022/07/05 00:42:23;;;;;;;3.83;2.13;;;14.70;99.90;;;;;;4989943;28;20041;-74
2022/07/05 00:44:48;;;;;;;4.55;2.45;;;14.70;99.90;;;;;;4989852;28;20030;-74
2022/07/05 00:47:15;;;;;;;4.05;2.22;;;14.70;99.90;;;;;;4989989;28;20145;-73
2022/07/05 00:49:41;;;;;;;4.95;2.20;;;14.70;99.90;;;;;;4996875;28;20026;-75
2022/07/05 00:52:09;;;;;;;5.32;2.30;;;14.70;99.90;;;;;;4989626;28;20064;-74
2022/07/05 00:54:38;;;;;;;5.30;2.88;;;14.70;99.90;;;;;;4987265;28;20607;-74
2022/07/05 00:57:04;;;;;;;5.50;2.60;;;14.70;99.90;;;;;;4989588;28;20046;-75
2022/07/05 00:59:30;;;;;;;3.90;2.20;;;14.70;99.90;;;;;;4988393;28;20393;-75
2022/07/05 01:01:56;;;;;;;5.40;2.53;;;14.70;99.90;;;;;;4989728;28;20081;-75
2022/07/05 01:04:22;;;;;;;5.28;2.53;;;14.70;99.90;;;;;;4988880;28;20049;-74
2022/07/05 01:06:49;;;;;;;4.80;2.30;;;14.70;99.90;;;;;;4980245;28;20038;-75
2022/07/05 01:09:18;;;;;;;5.30;2.90;;;14.70;99.90;;;;;;4975734;28;20141;-74
2022/07/05 01:11:44;;;;;;;7.40;2.60;;;14.70;99.90;;;;;;4989620;28;20038;-74
2022/07/05 01:14:18;;;;;;;4.97;2.80;;;14.70;99.90;;;;;;4989665;28;20106;-75
2022/07/05 01:16:45;;;;;;;5.15;2.75;;;14.60;99.90;;;;;;4985372;28;20120;-74
2022/07/05 01:19:12;;;;;;;5.72;3.03;;;14.60;99.90;;;;;;4977721;28;20030;-73
2022/07/05 01:21:44;;;;;;;6.88;3.25;;;14.60;99.90;;;;;;4982523;28;20070;-74
2022/07/05 01:24:13;;;;;;;4.80;3.03;;;14.60;99.90;;;;;;4988427;28;20073;-75
2022/07/05 01:26:39;;;;;;;4.85;2.90;;;14.60;99.90;;;;;;4986847;28;20041;-74
2022/07/05 01:29:07;;;;;;;6.72;2.97;;;14.60;99.90;;;;;;4989710;28;20049;-74
2022/07/05 01:31:33;;;;;;;6.35;3.42;;;14.50;99.90;;;;;;4988974;28;20051;-73
2022/07/05 01:33:59;;;;;;;6.50;3.10;;;14.50;99.90;;;;;;4988013;28;20030;-74
2022/07/05 01:36:25;;;;;;;6.32;3.30;;;14.50;99.90;;;;;;4987660;28;20034;-74
2022/07/05 01:38:51;;;;;;;7.07;3.13;;;14.50;99.90;;;;;;4988312;28;20026;-75
2022/07/05 01:41:17;;;;;;;6.78;3.65;;;14.50;99.90;;;;;;4988056;28;20038;-74
2022/07/05 01:43:42;;;;;;;6.05;3.78;;;14.50;99.90;;;;;;4988454;28;20034;-74
2022/07/05 01:46:09;;;;;;;7.18;3.38;;;14.40;99.90;;;;;;4980373;28;20026;-74
2022/07/05 01:48:38;;;;;;;6.32;3.67;;;14.40;99.90;;;;;;4988521;28;20049;-74
2022/07/05 01:51:09;;;;;;;5.97;3.60;;;14.40;99.90;;;;;;4976596;28;20038;-74
2022/07/05 01:53:35;;;;;;;7.07;4.30;;;14.40;99.90;;;;;;4988219;28;20544;-74
2022/07/05 01:56:03;;;;;;;7.85;4.40;;;14.40;99.90;;;;;;4988419;28;20034;-74
2022/07/05 01:58:30;;;;;;;7.28;4.55;;;14.30;99.90;;;;;;4988395;28;20031;-74
2022/07/05 02:00:58;;;;;;;6.60;3.85;;;14.30;99.90;;;;;;4976923;28;20038;-75
2022/07/05 02:03:24;;;;;;;8.18;4.45;;;14.30;99.90;;;;;;4987860;28;20049;-74
2022/07/05 02:05:50;;;;;;;9.48;4.45;;;14.30;99.90;;;;;;4974932;28;20042;-73
2022/07/05 02:08:17;;;;;;;6.68;4.55;;;14.20;99.90;;;;;;4987970;28;20038;-75
2022/07/05 02:10:43;;;;;;;7.35;4.18;;;14.20;99.90;;;;;;4987522;28;20034;-75
2022/07/05 02:13:10;;;;;;;6.40;3.97;;;14.10;99.90;;;;;;4987987;28;20049;-74
2022/07/05 02:15:39;;;;;;;8.48;4.72;;;14.10;99.90;;;;;;4987833;28;20121;-74
2022/07/05 02:18:06;;;;;;;8.27;4.57;;;14.10;99.90;;;;;;4987656;28;20034;-74
2022/07/05 02:20:33;;;;;;;8.27;4.57;;;14.10;99.90;;;;;;4973567;28;20042;-74
2022/07/05 02:22:59;;;;;;;7.68;4.97;;;14.10;99.90;;;;;;4972073;28;20049;-73
2022/07/05 02:25:25;;;;;;;6.50;4.15;;;14.00;99.90;;;;;;4987330;28;20026;-74
2022/07/05 02:27:52;;;;;;;8.38;5.30;;;14.00;99.90;;;;;;4987482;28;20507;-74
2022/07/05 02:30:18;;;;;;;8.30;5.00;;;14.00;99.90;;;;;;4989825;28;20485;-74
2022/07/05 02:32:44;;;;;;;8.02;5.20;;;13.90;99.90;;;;;;5012160;28;20038;-74
2022/07/05 02:35:11;;;;;;;7.72;4.93;;;13.90;99.90;;;;;;4987832;28;20034;-74
2022/07/05 02:37:39;;;;;;;7.90;4.88;;;13.90;99.90;;;;;;4978772;28;20038;-74
2022/07/05 02:40:10;;;;;;;7.65;5.40;;;13.90;99.90;;;;;;4987893;28;20477;-74
2022/07/05 02:42:36;;;;;;;9.00;5.38;;;13.90;99.90;;;;;;4988047;28;20093;-73
2022/07/05 02:45:02;;;;;;;9.00;5.32;;;13.80;99.90;;;;;;4984495;28;20042;-75
2022/07/05 02:47:31;;;;;;;8.00;4.90;;;13.80;99.90;;;;;;4973510;28;20133;-75
2022/07/05 02:50:08;;;;;;;7.20;5.00;;;13.80;99.90;;;;;;4991913;28;20050;-74
2022/07/05 02:52:34;;;;;;;8.13;5.50;;;13.80;99.90;;;;;;4984404;28;20491;-74
2022/07/05 02:55:00;;;;;;;9.82;5.63;;;13.70;99.90;;;;;;4994400;28;20038;-74
2022/07/05 02:57:26;;;;;;;8.25;5.18;;;13.70;99.90;;;;;;4992023;28;20482;-73
2022/07/05 02:59:54;;;;;;;9.07;5.78;;;13.70;99.90;;;;;;4991802;28;20061;-74
2022/07/05 03:02:21;;;;;;;9.20;5.18;;;13.70;99.90;;;;;;4991602;28;20141;-74
2022/07/05 03:04:47;;;;;;;8.35;4.95;;;13.70;99.90;;;;;;4991418;28;20084;-74
2022/07/05 03:07:12;;;;;;;7.60;4.93;;;13.60;99.90;;;;;;4992028;28;20066;-73
2022/07/05 03:09:38;;;;;;;7.30;4.70;;;13.60;99.90;;;;;;4991647;28;20592;-74
2022/07/05 03:12:04;;;;;;;7.22;4.88;;;13.60;99.90;;;;;;4993663;28;20180;-73
2022/07/05 03:14:30;;;;;;;9.10;4.90;;;13.50;99.90;;;;;;4993462;28;20125;-73
2022/07/05 03:16:56;;;;;;;7.80;5.35;;;13.50;99.90;;;;;;4987720;28;20106;-74
2022/07/05 03:19:21;;;;;;;8.05;5.22;;;13.50;99.90;;;;;;4990972;28;20073;-74
2022/07/05 03:21:47;;;;;;;7.50;4.70;;;13.50;99.90;;;;;;4991664;28;20124;-74
2022/07/05 03:24:13;;;;;;;8.35;4.97;;;13.50;99.90;;;;;;4991044;28;20042;-74
2022/07/05 03:26:38;;;;;;;8.43;4.90;;;13.40;99.90;;;;;;4984808;28;20117;-74
2022/07/05 03:29:04;;;;;;;8.57;4.90;;;13.40;99.90;;;;;;4990944;28;20077;-74
2022/07/05 03:31:30;;;;;;;6.95;4.53;;;13.30;99.90;;;;;;4986673;28;20090;-74
2022/07/05 03:33:56;;;;;;;9.18;4.80;;;13.30;99.90;;;;;;4971256;28;20097;-75
2022/07/05 03:36:22;;;;;;;7.88;5.70;;;13.30;99.90;;;;;;4971045;28;20466;-73
2022/07/05 03:38:47;;;;;;;9.80;5.63;;;13.30;99.90;;;;;;4971806;28;20041;-74
2022/07/05 03:41:13;;;;;;;8.88;5.45;;;13.30;99.90;;;;;;4971793;28;20461;-74
2022/07/05 03:43:39;;;;;;;8.07;5.18;;;13.20;99.90;;;;;;4969842;28;20050;-74
2022/07/05 03:46:04;;;;;;;9.73;6.07;;;13.20;99.90;;;;;;4969983;28;20464;-73
2022/07/05 03:48:30;;;;;;;9.10;5.75;;;13.20;99.90;;;;;;4986541;28;20045;-74
2022/07/05 03:50:56;;;;;;;9.05;5.60;;;13.20;99.90;;;;;;4986686;28;20408;-74
2022/07/05 03:53:21;;;;;;;10.07;5.55;;;13.10;99.90;;;;;;4985769;28;20027;-74
2022/07/05 03:55:47;;;;;;;8.05;5.53;;;13.10;99.90;;;;;;4986193;28;20488;-74
2022/07/05 03:58:13;;;;;;;7.82;5.30;;;13.10;99.90;;;;;;4970462;28;20034;-74
2022/07/05 04:00:38;;;;;;;9.35;5.60;;;13.10;99.90;;;;;;4971413;28;20053;-74
2022/07/05 04:03:04;;;;;;;7.70;5.07;;;13.10;99.90;;;;;;4970902;28;20035;-74
2022/07/05 04:05:30;;;;;;;8.73;5.60;;;13.10;99.90;;;;;;5002269;28;20042;-75
2022/07/05 04:07:56;;;;;;;8.77;5.25;;;13.00;99.90;;;;;;4970888;28;20517;-74
2022/07/05 04:10:23;;;;;;;8.02;5.15;;;13.00;99.90;;;;;;4970828;28;20048;-75
2022/07/05 04:12:48;;;;;;;8.25;5.32;;;13.00;99.90;;;;;;4969380;28;20063;-74
2022/07/05 04:15:14;;;;;;;10.05;5.65;;;12.90;99.90;;;;;;4970887;28;20138;-74
2022/07/05 04:17:55;;;;;;;7.32;4.75;;;13.00;99.90;;;;;;4970073;28;20069;-74
2022/07/05 04:20:22;;;;;;;8.13;4.90;;;12.90;99.90;;;;;;4970754;28;20692;-74
2022/07/05 04:22:49;;;;;;;8.23;4.50;;;12.90;99.90;;;;;;4970904;28;20473;-73
2022/07/05 04:25:18;;;;;;;8.32;5.20;;;12.90;99.90;;;;;;4972233;28;20031;-74
2022/07/05 04:27:51;;;;;;;9.25;5.13;;;12.90;99.90;;;;;;4970342;28;20038;-74
2022/07/05 04:30:19;;;;;;;7.47;5.07;;;13.00;99.90;;;;;;4979683;28;20050;-74
2022/07/05 04:32:45;;;;;;;8.30;5.28;;;12.90;99.90;;;;;;4982031;28;20552;-73
2022/07/05 04:35:11;;;;;;;9.60;5.38;;;13.00;99.90;;;;;;4979531;28;20048;-73
2022/07/05 04:37:37;;;;;;;9.13;4.53;;;13.00;99.90;;;;;;4990147;28;20030;-74
2022/07/05 04:40:09;;;;;;;7.70;4.60;;;12.90;99.90;;;;;;4989875;28;20109;-74
2022/07/05 04:42:35;;;;;;;7.95;4.75;;;13.00;99.90;;;;;;4989266;28;20412;-74
2022/07/05 04:45:01;;;;;;;7.80;4.90;;;13.00;99.90;;;;;;4981948;28;20048;-74
2022/07/05 04:47:26;;;;;;;8.40;5.00;;;13.00;99.90;;;;;;4984625;28;20507;-73
2022/07/05 04:49:54;;;;;;;8.23;4.40;;;13.00;99.90;;;;;;4989836;28;20105;-73
2022/07/05 04:52:20;;;;;;;9.35;4.60;;;13.00;99.90;;;;;;4989159;28;21697;-73
2022/07/05 04:54:46;;;;;;;7.35;4.93;;;13.00;99.90;;;;;;4989587;28;20031;-73
2022/07/05 04:57:12;;;;;;;9.07;5.30;;;13.00;99.90;;;;;;4989336;28;20641;-74
2022/07/05 04:59:38;;;;;;;7.35;4.47;;;13.00;99.90;;;;;;4989722;28;20437;-74
2022/07/05 05:02:03;;;;;;;7.50;4.80;;;12.90;99.90;;;;;;4989027;28;20073;-74
2022/07/05 05:04:29;;;;;;;8.05;4.63;;;13.00;99.90;;;;;;4982254;28;20044;-73
2022/07/05 05:06:55;;;;;;;7.88;4.60;;;12.90;99.90;;;;;;4989171;28;20386;-73
2022/07/05 05:09:21;;;;;;;7.63;4.75;;;13.00;99.90;;;;;;4989519;28;20662;-74
2022/07/05 05:11:47;;;;;;;8.70;4.97;;;13.00;99.90;;;;;;4988271;28;20030;-73
2022/07/05 05:14:12;;;;;;;8.23;5.30;;;13.00;99.90;;;;;;4988969;28;20034;-75
2022/07/05 05:16:38;;;;;;;8.85;4.70;;;13.00;99.90;;;;;;4989303;28;20118;-75
2022/07/05 05:19:04;;;;;;;7.75;4.72;;;13.00;99.90;;;;;;4988586;28;20038;-74
2022/07/05 05:21:30;;;;;;;8.02;4.60;;;13.00;99.90;;;;;;4988810;28;20108;-74
2022/07/05 05:23:55;;;;;;;8.07;4.47;;;13.10;99.90;;;;;;4988863;28;20101;-74
2022/07/05 05:26:21;;;;;;;8.38;4.70;;;13.10;99.90;;;;;;4988301;28;20487;-74
2022/07/05 05:28:47;;;;;;;9.23;4.65;;;13.10;99.90;;;;;;4988721;28;20092;-74
2022/07/05 05:31:13;;;;;;;8.60;4.63;;;13.20;99.90;;;;;;4991855;28;20500;-74
2022/07/05 05:33:39;;;;;;;10.05;4.70;;;13.20;99.90;;;;;;4989024;28;20038;-74
2022/07/05 05:36:05;;;;;;;6.70;4.75;;;13.20;99.90;;;;;;4977399;28;20166;-74
2022/07/05 05:38:31;;;;;;;10.48;4.90;;;13.20;99.90;;;;;;4988718;28;20113;-74
2022/07/05 05:40:57;;;;;;;8.00;4.80;;;13.30;99.90;;;;;;4992136;28;20476;-74
2022/07/05 05:43:22;;;;;;;8.00;4.70;;;13.30;99.90;;;;;;4983759;28;20034;-74
2022/07/05 05:45:48;;;;;;;7.47;4.38;;;13.30;99.90;;;;;;4989189;28;20053;-74
2022/07/05 05:48:13;;;;;;;7.63;4.20;;;13.30;99.90;;;;;;4974505;28;20034;-74
2022/07/05 05:50:39;;;;;;;8.38;4.78;;;13.40;99.90;;;;;;4988499;28;20485;-74
2022/07/05 05:53:05;;;;;;;7.38;4.32;;;13.40;99.90;;;;;;4982758;28;20037;-76
2022/07/05 05:55:31;;;;;;;7.32;4.72;;;13.40;99.90;;;;;;4988462;28;20158;-74
2022/07/05 05:58:10;;;;;;;8.10;4.00;;;13.40;99.90;;;;;;4988693;28;20089;-75
2022/07/05 06:00:36;;;;;;;9.75;3.85;;;13.40;99.90;;;;;;4979459;28;20104;-73
2022/07/05 06:03:01;;;;;;;6.53;3.90;;;13.50;99.90;;;;;;4986793;28;20473;-74
2022/07/05 06:05:27;;;;;;;6.93;3.55;;;13.50;99.90;;;;;;4980687;28;20543;-74
2022/07/05 06:07:54;;;;;;;6.70;3.47;;;13.60;99.90;;;;;;4987814;28;20605;-74
2022/07/05 06:10:29;;;;;;;7.68;3.53;;;13.70;99.90;;;;;;4977391;28;20085;-74
2022/07/05 06:12:57;;;;;;;6.53;3.50;;;13.70;99.90;;;;;;4988179;28;20100;-75
2022/07/05 06:15:23;;;;;;;6.00;3.10;;;13.70;99.90;;;;;;4987242;28;20030;-74
2022/07/05 06:17:49;;;;;;;7.60;3.22;;;13.80;99.90;;;;;;4991625;28;20049;-74
2022/07/05 06:20:22;;;;;;;5.88;3.08;;;13.80;99.90;;;;;;4978113;28;20030;-74
2022/07/05 06:22:49;;;;;;;5.28;2.70;;;13.90;99.90;;;;;;4978613;28;20034;-74
2022/07/05 06:25:15;;;;;;;5.95;2.67;;;13.90;99.90;;;;;;4988151;28;20584;-74
2022/07/05 06:27:42;;;;;;;5.05;2.38;;;13.90;99.90;;;;;;4988188;28;20149;-75
2022/07/05 06:30:09;;;;;;;6.60;2.90;;;14.00;99.90;;;;;;4975496;28;20058;-74
2022/07/05 06:32:35;;;;;;;5.75;2.90;;;14.10;99.90;;;;;;4986627;28;20044;-74
2022/07/05 06:35:00;;;;;;;5.60;2.42;;;14.10;99.90;;;;;;4981476;28;20038;-74
2022/07/05 06:37:26;;;;;;;4.88;2.75;;;14.20;99.90;;;;;;4976355;28;20041;-74
2022/07/05 06:39:52;;;;;;;5.35;2.88;;;14.20;99.90;;;;;;4977761;28;20520;-74
2022/07/05 06:42:17;;;;;;;3.78;2.55;;;14.30;99.90;;;;;;4988557;28;20065;-74
2022/07/05 06:44:43;;;;;;;6.30;2.60;;;14.40;99.90;;;;;;4973833;28;20742;-74
2022/07/05 06:47:09;;;;;;;5.35;2.70;;;14.40;99.90;;;;;;4988442;28;20045;-74
2022/07/05 06:49:35;;;;;;;5.50;2.50;;;14.50;99.90;;;;;;4988608;28;20053;-74
2022/07/05 06:52:01;;;;;;;6.05;2.42;;;14.60;99.90;;;;;;4985829;28;20039;-74
2022/07/05 06:54:26;;;;;;;5.00;2.50;;;14.70;99.90;;;;;;4986388;28;20481;-74
2022/07/05 06:56:55;;;;;;;5.25;2.33;;;14.70;99.90;;;;;;4971786;28;20142;-74
2022/07/05 06:59:22;;;;;;;5.18;2.10;;;14.80;99.90;;;;;;4971283;28;20692;-74
2022/07/05 07:01:47;;;;;;;5.00;2.28;;;14.90;99.90;;;;;;4983566;28;20037;-74
2022/07/05 07:04:13;;;;;;;5.57;2.13;;;15.00;99.90;;;;;;4975298;28;20453;-75
2022/07/05 07:06:39;;;;;;;4.40;2.05;;;15.10;99.90;;;;;;4962077;28;20417;-75
2022/07/05 07:09:21;;;;;;;5.65;2.10;;;15.20;99.90;;;;;;4980762;28;20596;-74
2022/07/05 07:11:48;;;;;;;5.25;1.83;;;15.40;99.90;;;;;;4986644;28;20664;-74
2022/07/05 07:14:15;;;;;;;4.28;1.83;;;15.50;99.90;;;;;;4984513;28;20026;-75
2022/07/05 07:16:41;;;;;;;4.82;1.80;;;15.60;99.90;;;;;;4984928;28;20042;-74
2022/07/05 07:19:07;;;;;;;4.95;1.70;;;15.70;99.90;;;;;;4979803;28;20037;-75
2022/07/05 07:21:32;;;;;;;6.07;2.00;;;15.90;99.90;;;;;;4981548;28;20536;-74
2022/07/05 07:23:58;;;;;;;5.63;2.10;;;16.10;99.90;;;;;;4986573;28;20047;-75
2022/07/05 07:26:23;;;;;;;4.93;1.70;;;16.30;99.90;;;;;;4983725;28;20117;-75
2022/07/05 07:28:49;;;;;;;4.63;2.15;;;16.50;99.90;;;;;;4990270;28;20026;-75
2022/07/05 07:31:15;;;;;;;5.50;1.80;;;16.60;99.90;;;;;;4987801;28;20054;-74
2022/07/05 07:33:41;;;;;;;5.03;1.80;;;16.70;99.90;;;;;;4988736;28;20034;-75
2022/07/05 07:36:07;;;;;;;4.38;1.98;;;16.80;99.90;;;;;;4989113;28;20067;-74
2022/07/05 07:38:33;;;;;;;4.55;1.63;;;16.80;99.90;;;;;;4989943;28;20034;-74
2022/07/05 07:41:00;;;;;;;4.70;1.65;;;16.90;99.90;;;;;;4990108;28;20081;-75
2022/07/05 07:43:26;;;;;;;4.10;1.27;;;17.00;99.90;;;;;;4989870;28;20105;-75
2022/07/05 07:45:52;;;;;;;4.35;1.10;;;17.10;99.90;;;;;;4984180;28;20121;-75
2022/07/05 07:48:18;;;;;;;4.10;1.35;;;17.20;99.90;;;;;;4991193;28;20121;-74
2022/07/05 07:50:44;;;;;;;3.22;1.42;;;17.30;99.90;;;;;;4975489;28;20404;-75
2022/07/05 07:53:10;;;;;;;3.00;1.23;;;17.30;99.90;;;;;;5016000;28;20098;-75
2022/07/05 07:55:35;;;;;;;3.25;1.42;;;17.30;99.60;;;;;;4986448;28;20037;-75
2022/07/05 07:58:02;;;;;;;3.78;1.20;;;17.40;99.10;;;;;;4990420;28;20030;-74
2022/07/05 08:00:28;;;;;;;4.47;1.27;;;17.50;99.10;;;;;;4988572;28;20465;-75
2022/07/05 08:02:53;;;;;;;3.95;1.10;;;17.50;98.60;;;;;;4976164;28;20093;-74
2022/07/05 08:05:19;;;;;;;4.97;1.35;;;17.50;98.50;;;;;;4989984;28;20085;-75
2022/07/05 08:07:45;;;;;;;4.07;1.30;;;17.60;98.50;;;;;;4989877;28;20034;-74
2022/07/05 08:10:10;;;;;;;3.85;1.10;;;17.70;98.20;;;;;;4989813;28;20034;-74
2022/07/05 08:12:36;;;;;;;4.10;1.10;;;17.80;98.20;;;;;;4989400;28;20093;-75
2022/07/05 08:15:02;;;;;;;4.43;1.20;;;17.90;97.80;;;;;;4990272;28;20026;-75
2022/07/05 08:17:28;;;;;;;3.80;1.35;;;17.90;97.70;;;;;;4983338;28;20045;-74
2022/07/05 08:22:38;;;;;;;4.85;1.30;;;18.00;96.30;;;;;;4990936;28;20060;-75
2022/07/05 08:25:04;;;;;;;4.20;1.15;;;18.10;97.30;;;;;;4989418;28;20473;-74
2022/07/05 08:27:30;;;;;;;3.65;1.02;;;18.10;96.30;;;;;;4984941;28;20038;-74
2022/07/05 08:29:55;;;;;;;3.63;0.90;;;18.20;95.70;;;;;;4989725;28;20055;-73
2022/07/05 08:32:21;;;;;;;8.35;1.40;;;18.30;96.40;;;;;;4989225;28;20499;-75
2022/07/05 08:34:47;;;;;;;4.50;1.40;;;18.30;96.40;;;;;;4974210;28;20125;-73
2022/07/05 08:37:12;;;;;;;4.53;1.30;;;18.50;96.00;;;;;;4988637;28;20412;-73
2022/07/05 08:39:38;;;;;;;3.08;1.30;;;18.60;95.40;;;;;;5015602;28;20030;-73
2022/07/05 08:42:09;;;;;;;4.63;1.15;;;18.70;93.70;;;;;;4980803;28;20041;-75
2022/07/05 08:44:38;;;;;;;3.58;1.17;;;18.80;93.70;;;;;;4989752;28;20481;-75
2022/07/05 08:47:08;;;;;;;3.47;1.20;;;18.80;92.80;;;;;;4989246;28;20121;-74
2022/07/05 08:49:37;;;;;;;4.22;1.33;;;18.90;93.30;;;;;;4988958;28;20392;-73
2022/07/05 08:52:04;;;;;;;4.38;1.20;;;18.90;93.20;;;;;;4989367;28;20113;-74
2022/07/05 08:54:31;;;;;;;4.43;1.17;;;19.10;93.70;;;;;;4973123;28;20485;-75
2022/07/05 08:56:57;;;;;;;3.28;1.10;;;19.20;92.30;;;;;;4989594;28;20042;-74
2022/07/05 08:59:23;;;;;;;3.70;1.08;;;19.30;90.80;;;;;;4989258;28;20038;-74
2022/07/05 09:01:49;;;;;;;3.97;1.25;;;19.30;92.30;;;;;;4980117;28;20077;-75
2022/07/05 09:04:17;;;;;;;4.10;1.30;;;19.20;91.90;;;;;;4988810;28;20037;-75
2022/07/05 09:06:46;;;;;;;3.03;0.98;;;19.00;91.40;;;;;;4978032;28;20739;-74
2022/07/05 09:09:13;;;;;;;3.15;1.20;;;18.90;92.20;;;;;;4988823;28;20034;-74
2022/07/05 09:11:41;;;;;;;4.25;1.15;;;18.70;90.90;;;;;;4989538;28;20045;-74
2022/07/05 09:14:25;;;;;;;3.95;1.10;;;18.60;92.10;;;;;;4988973;28;20096;-74
2022/07/05 09:16:51;;;;;;;3.08;0.95;;;18.60;93.10;;;;;;5009999;28;20501;-75
2022/07/05 09:19:17;;;;;;;5.15;1.48;;;18.80;90.80;;;;;;4985918;28;20034;-74
2022/07/05 09:21:43;;;;;;;4.60;1.20;;;19.10;89.30;;;;;;4991269;28;20041;-74
2022/07/05 09:24:09;;;;;;;3.65;1.13;;;19.30;90.60;;;;;;4988686;28;20088;-76
2022/07/05 09:26:39;;;;;;;3.92;1.30;;;19.50;86.80;;;;;;4989291;28;20037;-78
2022/07/05 09:29:06;;;;;;;;;;;19.60;87.30;;;;;;4988999;28;20054;-75
2022/07/05 09:31:34;;;;;;;3.25;1.10;;;19.70;85.00;;;;;;4988739;28;19929;-75
2022/07/05 09:34:11;;;;;;;3.95;1.05;;;19.80;86.00;;;;;;4977990;28;20034;-72
2022/07/05 09:36:52;;;;;;;3.30;1.00;;;20.00;79.70;;;;;;4986654;28;20034;-75
2022/07/05 09:39:37;;;;;;;3.40;0.93;;;20.00;74.30;;;;;;4987188;28;20516;-76
2022/07/05 09:42:13;;;;;;;4.32;0.90;;;20.10;72.90;;;;;;4988309;28;20041;-75
2022/07/05 09:44:52;;;;;;;3.35;0.98;;;20.20;76.00;;;;;;4993548;28;20444;-73
2022/07/05 09:47:20;;;;;;;3.67;1.17;;;20.30;73.70;;;;;;4988131;28;20118;-73
2022/07/05 09:49:48;;;;;;;4.75;1.65;;;20.30;78.20;;;;;;4985836;28;20034;-75
2022/07/05 09:52:33;;;;;;;4.32;1.00;;;20.30;73.60;;;;;;4986875;28;20033;-74
2022/07/05 09:55:12;;;;;;;2.63;1.00;;;20.20;78.10;;;;;;4987086;28;20038;-73
2022/07/05 09:57:40;;;;;;;2.40;0.93;;;20.20;79.60;;;;;;4982110;28;20034;-75
2022/07/05 10:00:17;;;;;;;4.20;1.10;;;20.30;71.40;;;;;;4976014;28;20030;-76
2022/07/05 10:03:03;;;;;;;2.42;1.08;;;20.30;74.50;;;;;;4987790;28;20046;-75
2022/07/05 10:05:32;;;;;;;3.08;1.00;;;20.50;73.10;;;;;;4987773;28;20047;-75
2022/07/05 10:08:00;;;;;;;2.63;1.15;;;20.60;73.20;;;;;;4987922;28;20034;-75
2022/07/05 10:10:31;;;;;;;4.63;1.08;;;20.70;69.70;;;;;;4974704;28;20034;-75
2022/07/05 10:12:59;;;;;;;3.88;1.00;;;20.90;71.40;;;;;;4978775;28;20121;-75
2022/07/05 10:15:27;;;;;;;3.38;1.30;;;21.00;68.50;;;;;;4983682;28;20061;-74
2022/07/05 10:18:08;;;;;;;3.17;1.10;;;21.10;68.80;;;;;;4987959;28;20034;-75
2022/07/05 10:20:42;;;;;;;3.58;1.60;;;21.30;65.40;;;;;;4987806;28;20042;-76
2022/07/05 10:23:17;;;;;;;3.47;1.33;;;21.50;64.80;;;;;;4987465;28;20074;-75
2022/07/05 10:25:48;;;;;;;3.75;1.58;;;21.60;65.30;;;;;;4988159;28;20076;-74
2022/07/05 10:28:15;;;;;;;4.50;1.60;;;21.50;58.90;;;;;;4987849;28;20860;-74
2022/07/05 10:30:45;;;;;;;5.32;2.47;;;21.40;64.60;;;;;;4980844;28;20093;-75
2022/07/05 10:33:14;;;;;;;5.72;1.92;;;21.20;64.60;;;;;;4987295;28;20535;-75
2022/07/05 10:35:46;;;;;;;4.25;1.90;;;20.90;66.10;;;;;;4988119;28;20051;-75
2022/07/05 10:38:12;;;;;;;4.95;2.22;;;20.80;64.20;;;;;;4987253;28;20068;-75
2022/07/05 10:40:42;;;;;;;4.85;2.25;;;21.00;67.80;;;;;;4987325;28;20030;-75
2022/07/05 10:43:10;;;;;;;5.88;2.40;;;21.20;63.50;;;;;;4980112;28;20050;-75
2022/07/05 10:45:41;;;;;;;4.50;2.30;;;21.40;66.60;;;;;;4987666;28;20022;-74
2022/07/05 10:48:12;;;;;;;5.45;2.30;;;21.50;67.20;;;;;;4984973;28;20037;-73
2022/07/05 10:50:50;;;;;;;4.00;2.00;;;21.40;61.70;;;;;;4983597;28;20042;-74
2022/07/05 10:53:20;;;;;;;3.97;1.90;;;21.00;62.40;;;;;;4987781;28;20026;-76
2022/07/05 10:55:50;;;;;;;6.28;1.83;;;21.10;65.20;;;;;;4987753;28;20035;-76
2022/07/05 10:58:15;;;;;;;;;;;21.20;62.50;;;;;;4986649;28;20034;-74
2022/07/05 11:00:41;;;;;;;4.20;2.00;;;21.40;63.00;;;;;;4986723;28;20348;-74
2022/07/05 11:03:35;;;;;;;4.45;1.80;;;21.60;62.70;;;;;;4988273;28;20038;-75
2022/07/05 11:06:02;;;;;;;6.22;2.95;;;22.00;61.00;;;;;;4987516;28;20037;-75
2022/07/05 11:08:30;;;;;;;6.18;3.05;;;22.30;59.60;;;;;;4991178;28;20108;-73
2022/07/05 11:11:11;;;;;;;5.30;2.53;;;22.30;60.40;;;;;;4991790;28;20038;-76
2022/07/05 11:13:43;;;;;;;4.65;1.90;;;22.40;59.30;;;;;;4992001;28;20045;-76
2022/07/05 11:16:28;;;;;;;5.30;2.40;;;22.60;55.60;;;;;;4992748;28;20030;-75
2022/07/05 11:19:18;;;;;;;6.35;2.60;;;22.70;55.90;;;;;;4979570;28;20043;-74
2022/07/05 11:22:01;;;;;;;7.57;2.70;;;24.40;53.40;;;;;;4992025;28;20046;-74
2022/07/05 11:24:35;;;;;;;5.32;2.58;;;23.90;51.50;;;;;;4990897;28;20035;-75
2022/07/05 11:27:03;;;;;;;4.35;2.17;;;23.30;52.10;;;;;;4990744;28;20038;-75
2022/07/05 11:29:45;;;;;;;5.28;2.10;;;23.80;52.10;;;;;;4991805;28;20073;-75
2022/07/05 11:32:15;;;;;;;3.95;1.88;;;26.10;46.00;;;;;;4991710;28;20082;-76
2022/07/05 11:34:42;;;;;;;;;;;26.30;45.50;;;;;;4992391;28;20037;-75
2022/07/05 11:37:13;;;;;;;5.13;2.30;;;25.70;44.00;;;;;;4992184;28;19936;-74
2022/07/05 11:39:40;;;;;;;5.00;2.33;;;25.20;44.60;;;;;;4991590;28;20041;-75
2022/07/05 11:42:07;;;;;;;4.10;2.20;;;24.80;46.00;;;;;;4991344;28;20072;-75
2022/07/05 11:44:34;;;;;;;8.00;2.60;;;24.40;47.60;;;;;;4991440;28;20470;-76
2022/07/05 11:47:01;;;;;;;5.25;2.70;;;23.80;46.70;;;;;;4989498;28;20041;-76
2022/07/05 11:49:26;;;;;;;4.70;2.40;;;23.20;50.70;;;;;;4987164;28;20117;-73
2022/07/05 11:52:00;;;;;;;5.43;2.95;;;22.70;51.40;;;;;;4980908;28;20531;-76
2022/07/05 11:54:30;;;;;;;9.57;6.50;;;22.20;52.90;;;;;;4991522;28;20061;-75
2022/07/05 11:56:56;;;;;;;9.32;5.32;;;21.80;56.10;;;;;;4990714;28;20053;-73
2022/07/05 11:59:23;;;;;;;8.63;5.43;;;21.80;58.20;;;;;;4988363;28;20038;-74
2022/07/05 12:01:50;;;;;;;9.55;6.30;;;22.00;59.70;;;;;;4991525;28;20049;-75
2022/07/05 12:04:30;;;;;;;10.50;7.70;;;22.00;59.00;;;;;;4989643;28;20042;-73
2022/07/05 12:06:57;;;;;;;17.65;13.90;;;21.90;57.30;;;;;;4981660;28;20026;-75
2022/07/05 12:15:12;;;;;;;15.38;11.68;;;21.90;61.00;;;;;;4990759;28;20030;-75
2022/07/05 12:17:41;;;;;;;17.70;11.82;;;22.30;58.10;;;;;;4990973;28;20084;-76
2022/07/05 12:20:09;;;;;;;32.17;24.50;;;22.60;58.20;;;;;;4990491;28;20049;-74
2022/07/05 12:22:37;;;;;;;28.75;23.88;;;22.80;54.60;;;;;;4990649;28;20042;-74
2022/07/05 12:25:06;;;;;;;30.27;24.92;;;22.80;54.90;;;;;;4990955;28;20034;-75
2022/07/05 12:27:35;;;;;;;31.98;25.95;;;22.80;54.50;;;;;;4990752;28;20118;-75
2022/07/05 12:30:04;;;;;;;32.97;27.70;;;22.90;54.30;;;;;;4986652;28;20059;-75
2022/07/05 12:32:30;;;;;;;37.97;30.42;;;22.80;55.60;;;;;;4990737;28;20049;-74
2022/07/05 12:34:56;;;;;;;35.55;30.20;;;22.60;55.80;;;;;;4990723;28;20050;-73
2022/07/05 12:37:24;;;;;;;38.20;33.35;;;22.40;55.80;;;;;;4990765;28;20085;-74
2022/07/05 12:40:02;;;;;;;46.97;36.33;;;22.50;56.00;;;;;;4983277;28;20041;-74
2022/07/05 12:42:38;;;;;;;47.40;39.50;;;22.70;58.60;;;;;;4990463;28;20503;-73
2022/07/05 12:45:14;;;;;;;47.53;38.38;;;23.00;56.30;;;;;;4990120;28;20046;-75
2022/07/05 12:47:50;;;;;;;48.78;41.58;;;23.30;55.10;;;;;;4985020;28;20039;-74
2022/07/05 12:50:16;;;;;;;52.20;44.58;;;23.30;54.80;;;;;;4990066;28;20057;-73
2022/07/05 12:53:00;;;;;;;53.63;44.97;;;23.20;51.80;;;;;;4989061;28;20046;-74
2022/07/05 12:58:19;;;;;;;52.47;44.40;;;23.30;55.70;;;;;;4990445;28;20045;-73
2022/07/05 13:00:45;;;;;;;48.47;40.33;;;23.40;53.90;;;;;;4990157;28;20038;-75